Indian Springs, Nevada Weather observations

Data are for observation ending at time listed.
 Day   Time    Ave.   Ave.  Ave.  Vector   Max.   Stn.    Total    Solar   Ave.  
  of    of     Air    Rel.  Wind   Wind    Wind   Baro.  Precip.   Rad.    Soil  
Year   Day     Temp.  Hum.  Speed  Dir.    Gust   Pres.                    Temp. 
2022   (PST)    F      %     mph   deg.    mph     mb.     in.     W/m2     F   
------------------------------------------------------------------------------
 226    4:50   77.2    58    0.5   113      2.1   907.7    0.00       2    86.2
 226    5:00   77.0    59    0.3    83      1.2   907.8    0.00       3    86.1
 226    5:10   77.0    58    0.0     0      0.0   907.9    0.00       3    86.1
 226    5:20   77.1    59    0.0    60      0.9   907.8    0.00       3    86.0
 226    5:30   76.5    61    0.2    71      0.8   907.8    0.00       6    86.0
 226    5:40   76.1    61    0.0     0      0.0   907.8    0.00      10    85.9
 226    5:50   76.0    61    0.0     0      0.0   907.9    0.00      17    85.8
 226    6:00   76.0    61    0.0    40      0.7   908.0    0.00      26    85.8
 226    6:10   76.1    61    0.0     0      0.0   908.0    0.00      36    85.7
 226    6:20   76.1    61    0.4   199      2.1   908.0    0.00      55    85.7
 226    6:30   76.5    59    0.8   214      1.9   908.0    0.00      82    85.6
 226    6:40   77.4    58    0.7   285      1.6   908.1    0.00      99    85.5
 226    6:50   78.5    56    1.0    29      2.0   908.3    0.00     287    85.4
 226    7:00   82.2    49    0.3   114      1.3   908.5    0.00     392    85.3
 226    7:10   82.9    48    1.2   234      2.2   908.9    0.00     430    85.2
 226    7:20   82.8    48    1.2   130      3.0   909.2    0.00     452    85.2
 226    7:30   83.0    47    2.1   100      3.6   909.5    0.00     261    85.2
 226    7:40   81.7    49    2.5   102      4.7   909.5    0.00     207    85.3
 226    7:50   81.2    49    2.7   102      5.0   909.4    0.00     224    85.4
 226    8:00   81.4    49    2.4   110      4.8   909.3    0.00     232    85.5
 226    8:10   81.6    49    3.1   115      6.9   909.2    0.00     297    85.6
 226    8:20   83.0    47    3.3   113      6.8   909.2    0.00     616    85.7
 226    8:30   84.5    44    3.1    97      7.1   909.4    0.00     646    85.9
 226    8:40   85.3    43    4.4   100      8.3   909.6    0.00     939    86.0
 226    8:50   87.0    40    4.3   102     11.6   909.8    0.00     763    86.1
 226    9:00   87.0    40    5.6    95     10.8   909.9    0.00     855    86.3
 226    9:10   87.9    37    6.5   106     13.4   910.1    0.00     752    86.5
 226    9:20   88.2    34    5.5    97     12.3   910.1    0.00     859    86.8
 226    9:30   88.9    32    6.9    94     11.5   910.2    0.00     947    87.1
 226    9:40   88.9    32    6.6    97     11.8   910.2    0.00     839    87.4
 226    9:50   90.2    30    5.8    92     13.6   910.2    0.00    1042    87.8
 226   10:00   90.2    30    4.9   101      9.8   910.2    0.00     788    88.1
 226   10:10   90.8    29    5.7    97     12.9   910.2    0.00     791    88.5
 226   10:20   91.2    29    5.2   103     12.1   910.2    0.00     999    88.9
 226   10:30   90.6    31    6.2    94     12.9   910.2    0.00     824    89.4
 226   10:40   90.6    30    5.9    95     11.2   910.2    0.00    1028    89.8
 226   10:50   90.6    29    6.0    93     12.5   910.1    0.00     431    90.2
 226   11:00   89.7    30    5.3    86     10.5   909.9    0.00     255    90.6
 226   11:10   89.6    29    5.1    82     10.3   909.6    0.00     218    91.1
 226   11:20   89.6    29    4.5    81     10.0   909.3    0.00     270    91.5
 226   11:30   89.7    29    5.0    99      9.3   909.2    0.00     320    91.8
 226   11:40   89.9    28    3.9    88      8.8   909.0    0.00     237    92.1
 226   11:50   89.5    28    3.6    91      7.5   909.0    0.00     201    92.3
 226   12:00   89.6    28    3.2    94      6.3   908.9    0.00     180    92.5
 226   12:10   89.7    29    3.1    86      6.4   908.8    0.00     156    92.6
 226   12:20   89.5    29    3.2    95      6.1   908.6    0.00     161    92.7
 226   12:30   89.7    29    3.2    81      6.6   908.5    0.00     190    92.8
 226   12:40   89.9    30    3.4   100     10.2   908.3    0.00     203    92.8
 226   12:50   89.9    29    3.8   116     10.7   908.3    0.00     224    92.8
 226   13:00   89.7    29    4.2   108      7.7   908.3    0.00     264    92.8
 226   13:10   90.0    28    4.8   105      8.3   908.2    0.00     357    92.8
 226   13:20   90.8    26    4.1   100      7.6   908.1    0.00     541    92.8
 226   13:30   92.2    24    3.4   115      9.3   908.0    0.00     738    92.8
 226   13:40   93.8    23    4.1   112      8.7   908.0    0.00     912    92.8
 226   13:50   93.6    24    4.0    66      8.3   908.0    0.00     805    92.8
 226   14:00   93.3    24    3.3    72      8.4   907.9    0.00     263    92.9
 226   14:10   94.0    25    4.9    85     10.0   907.7    0.00     819    93.1
 226   14:20   94.0    25    5.2    74      9.4   907.7    0.00     757    93.3
 226   14:30   94.4    24    5.3   104     10.2   907.6    0.00     778    93.5
 226   14:40   93.7    24    4.4   100      8.9   907.5    0.00     746    93.7
 226   14:50   94.7    23    2.8    60      8.0   907.3    0.00     721    93.8
 226   15:00   95.5    22    3.2   114      8.0   907.2    0.00     690    94.0
 226   15:10   95.3    22    2.5   142      6.3   907.4    0.00     580    94.2
 226   15:20   95.7    22    2.9    50      7.8   907.4    0.00     659    94.5
 226   15:30   95.8    22    3.8    66      8.3   907.4    0.00     642    94.7
 226   15:40   95.9    22    4.3    72      9.9   907.4    0.00     602    94.9
 226   15:50   96.0    21    2.8    87      8.0   907.4    0.00     622    95.2
 226   16:00   96.2    21    2.3    90      7.5   907.4    0.00     492    95.4
 226   16:10   96.2    20    2.8    76      8.2   907.3    0.00     308    95.7
 226   16:20   95.4    21    3.9    71      7.3   907.2    0.00     265    95.9
 226   16:30   95.1    21    2.4    83      6.0   907.2    0.00     237    96.1
 226   16:40   94.4    22    2.4   286      7.4   907.2    0.00     212    96.3
 226   16:50   93.0    24    4.0   332     10.9   907.1    0.00     217    96.5
 226   17:00   92.6    23    3.4   345      9.3   906.9    0.00     191    96.6
 226   17:10   92.7    23    2.9   323      7.8   906.8    0.00     196    96.7
 226   17:20   93.1    22    2.2   320      6.4   906.8    0.00     153    96.7
 226   17:30   93.0    22    1.2   327      4.8   906.7    0.00     105    96.7
 226   17:40   92.8    22    2.9   228      9.9   906.6    0.00      86    96.7
 226   17:50   90.9    25    6.6   210     13.4   906.5    0.00      68    96.7
 226   18:00   90.1    25    5.7   216     12.0   906.4    0.00      66    96.6
 226   18:10   90.0    25    6.8   216     14.1   906.1    0.00      84    96.6
 226   18:20   90.0    24    6.1   208     11.2   905.9    0.00      71    96.5
 226   18:30   90.5    23    3.8   197      8.0   905.8    0.00      41    96.4
 226   18:40   90.6    23    4.0   187      7.8   905.8    0.00      18    96.3
 226   18:50   90.2    23    4.0   193      7.0   905.8    0.00       4    96.2
 226   19:00   90.4    22    3.1   192      6.4   905.9    0.00       0    96.0
 226   19:10   90.4    22    1.8   196      4.2   906.0    0.00       0    95.9
 226   19:20   90.2    22    1.4   197      4.5   906.1    0.00       0    95.8
 226   19:30   89.9    23    1.1   190      3.3   906.2    0.00       0    95.6
 226   19:40   89.5    24    1.5    98      4.5   906.3    0.00       0    95.5
 226   19:50   88.4    26    3.1    83      6.8   906.5    0.00       0    95.3
 226   20:00   88.3    26    3.6    88      7.2   906.7    0.00       0    95.1
 226   20:10   88.0    28    4.3   105      8.1   906.7    0.00       0    95.0
 226   20:20   87.7    28    4.3   106      8.0   906.7    0.00       0    94.8
 226   20:30   87.4    29    6.7   106     19.4   906.8    0.00       0    94.6
 226   20:40   86.8    32    7.9   114     18.4   906.9    0.00       0    94.5
 226   20:50   86.6    33    4.9   126     15.1   907.0    0.00       0    94.3
 226   21:00   86.4    35    5.3   126     15.5   907.1    0.00       0    94.2
 226   21:10   85.3    38    6.5   117     14.9   907.0    0.00       0    94.0
 226   21:20   84.2    40    6.5   116     16.4   907.0    0.00       0    93.9
 226   21:30   83.6    41    6.6   110     13.4   906.8    0.00       0    93.7
 226   21:40   83.0    41    8.1   105     13.2   906.7    0.00       0    93.6
 226   21:50   82.4    43    5.3   114     11.7   906.6    0.00       0    93.4
 226   22:00   82.0    43    7.8   104     14.2   906.5    0.00       0    93.3
 226   22:10   82.0    44   10.4   104     20.8   906.6    0.00       0    93.1
 226   22:20   81.8    44    8.1   112     14.2   906.7    0.00       0    92.9
 226   22:30   81.7    44    5.7   134     14.0   906.7    0.00       0    92.8
 226   22:40   81.7    44    6.2   137     15.3   906.8    0.00       0    92.6
 226   22:50   81.8    44    6.1   146     18.0   906.7    0.00       0    92.4
 226   23:00   82.2    43    7.2   151     14.4   906.6    0.00       0    92.3
 226   23:10   82.6    42    5.9   152     12.9   906.5    0.00       0    92.1
 226   23:20   82.8    41    4.1   124      7.8   906.6    0.00       0    91.9
 226   23:30   82.5    41    5.6   106     10.3   906.8    0.00       0    91.7
 226   23:40   82.4    42    5.7    96     10.4   906.9    0.00       0    91.6
 226   23:50   81.6    43    5.5    86     10.4   906.8    0.00       0    91.5
 227    0:00   80.5    44    5.7    92     13.0   906.7    0.00       0    91.3
 227    0:10   79.6    47    5.4    95      9.4   906.6    0.00       0    91.2
 227    0:20   78.7    48    5.5    96     11.0   906.5    0.00       0    91.1
 227    0:30   78.2    49    6.0    88     12.3   906.4    0.00       0    90.9
 227    0:40   77.7    51    5.7    91     13.4   906.3    0.00       0    90.8
 227    0:50   77.3    52    7.0   107     12.8   906.3    0.00       0    90.6
 227    1:00   76.9    53    6.5   108     13.7   906.3    0.00       0    90.5
 227    1:10   76.6    54    4.6   109      9.6   906.3    0.00       0    90.4
 227    1:20   76.2    55    5.9   105     11.2   906.2    0.00       0    90.2
 227    1:30   75.9    56    5.6   106      9.6   906.2    0.00       0    90.1
 227    1:40   75.6    56    4.9   104      8.0   906.1    0.00       0    89.9
 227    1:50   75.4    57    2.0   101      4.0   906.0    0.00       0    89.8
 227    2:00   75.4    57    0.5   346      1.5   906.0    0.00       0    89.7
 227    2:10   75.3    57    1.2    94      3.0   905.9    0.00       0    89.5
 227    2:20   75.0    58    0.6   146      2.1   905.9    0.00       0    89.4
 227    2:30   74.9    58    0.8   214      1.8   905.8    0.00       0    89.2
 227    2:40   74.9    58    0.1   188      0.9   905.6    0.00       0    89.1
 227    2:50   74.7    59    0.0     0      0.0   905.6    0.00       0    88.9
 227    3:00   74.8    59    0.1   274      0.7   905.5    0.00       0    88.8
 227    3:10   74.7    59    0.1    50      0.8   905.6    0.00       0    88.7
 227    3:20   74.3    60    0.0     0      0.0   905.6    0.00       0    88.5
 227    3:30   74.2    60    0.6   318      2.0   905.6    0.00       0    88.4
 227    3:40   73.8    61    1.0    42      2.0   905.5    0.00       0    88.3
 227    3:50   73.5    61    0.8    60      2.5   905.5    0.00       0    88.1
 227    4:00   73.3    62    0.3   117      1.7   905.4    0.00       0    88.0
 227    4:10   73.0    62    0.0     0      0.0   905.4    0.00       0    87.9
 227    4:20   72.9    62    0.2   153      1.9   905.4    0.00       0    87.7
 227    4:30   72.7    63    0.6   113      2.1   905.4    0.00       0    87.6
 227    4:40   72.6    64    0.1   113      1.6   905.6    0.00       0    87.5

Return to Indian Springs, Nevada graphs page.


Western Regional Climate Center,wrcc@dri.edu